Time;durP1;ratioP1;P1;durP2;ratioP2;P2;SDS_P1;SDS_P2;PMS_P1;PMS_P2;Temp;Humidity;BMP_temperature;BMP_pressure;BME280_temperature;BME280_humidity;BME280_pressure;Samples;Min_cycle;Max_cycle;Signal;HPM_P1;HPM_P2
2023/05/26 00:02:20;;;;;;;55.60;45.90;;;;;;;-128.00;-1.00;-1.00;105716;1252;1004345;-72
2023/05/26 00:04:47;;;;;;;53.60;45.20;;;;;;;-128.00;-1.00;-1.00;105687;1251;1047468;-71
2023/05/26 00:07:16;;;;;;;53.00;44.50;;;;;;;-128.00;-1.00;-1.00;105770;1251;1005088;-72
2023/05/26 00:09:42;;;;;;;51.80;43.90;;;;;;;-128.00;-1.00;-1.00;105778;1251;1056138;-72
2023/05/26 00:12:09;;;;;;;54.40;43.90;;;;;;;-128.00;-1.00;-1.00;105779;1251;1003654;-72
2023/05/26 00:14:36;;;;;;;55.60;45.40;;;;;;;-128.00;-1.00;-1.00;105690;1251;1004168;-72
2023/05/26 00:17:02;;;;;;;55.10;43.80;;;;;;;-128.00;-1.00;-1.00;105714;1251;1004404;-72
2023/05/26 00:19:31;;;;;;;55.00;44.30;;;;;;;-128.00;-1.00;-1.00;105701;1253;1003994;-71
2023/05/26 00:21:58;;;;;;;53.10;43.80;;;;;;;-128.00;-1.00;-1.00;105713;1251;1055842;-72
2023/05/26 00:24:24;;;;;;;50.40;44.00;;;;;;;-128.00;-1.00;-1.00;105736;1251;1004280;-73
2023/05/26 00:26:51;;;;;;;57.50;45.40;;;;;;;-128.00;-1.00;-1.00;105736;1253;1005441;-73
2023/05/26 00:29:17;;;;;;;54.90;44.50;;;;;;;-128.00;-1.00;-1.00;105727;1251;1004334;-72
2023/05/26 00:31:44;;;;;;;55.30;45.90;;;;;;;-128.00;-1.00;-1.00;105761;1255;1003458;-72
2023/05/26 00:34:10;;;;;;;48.40;43.20;;;;;;;-128.00;-1.00;-1.00;105767;1251;1004442;-72
2023/05/26 00:36:37;;;;;;;50.50;42.50;;;;;;;-128.00;-1.00;-1.00;105714;1251;1004986;-72
2023/05/26 00:39:04;;;;;;;52.70;45.10;;;;;;;-128.00;-1.00;-1.00;105774;1251;1003828;-72
2023/05/26 00:41:31;;;;;;;52.90;43.80;;;;;;;-128.00;-1.00;-1.00;105731;1253;1003874;-72
2023/05/26 00:43:57;;;;;;;52.60;44.00;;;;;;;-128.00;-1.00;-1.00;105582;1251;1004619;-72
2023/05/26 00:46:24;;;;;;;50.50;42.50;;;;;;;-128.00;-1.00;-1.00;105753;1251;1003759;-72
2023/05/26 00:48:51;;;;;;;53.30;44.00;;;;;;;-128.00;-1.00;-1.00;105712;1251;1004249;-72
2023/05/26 00:51:18;;;;;;;51.20;44.60;;;;;;;-128.00;-1.00;-1.00;105726;1251;1004028;-72
2023/05/26 00:53:44;;;;;;;54.60;45.10;;;;;;;-128.00;-1.00;-1.00;105741;1251;1004056;-72
2023/05/26 00:56:14;;;;;;;48.80;43.30;;;;;;;-128.00;-1.00;-1.00;105756;1251;1004466;-72
2023/05/26 00:58:41;;;;;;;56.10;44.90;;;;;;;-128.00;-1.00;-1.00;105552;1251;1055044;-73
2023/05/26 01:01:09;;;;;;;53.40;43.00;;;;;;;-128.00;-1.00;-1.00;105734;1251;1004360;-73
2023/05/26 01:03:38;;;;;;;53.10;42.40;;;;;;;-128.00;-1.00;-1.00;105730;1251;1004011;-73
2023/05/26 01:06:05;;;;;;;52.30;41.80;;;;;;;-128.00;-1.00;-1.00;105721;1251;1047611;-73
2023/05/26 01:08:32;;;;;;;52.70;43.60;;;;;;;-128.00;-1.00;-1.00;105755;1253;1003769;-73
2023/05/26 01:11:28;;;;;;;48.70;40.60;;;;;;;-128.00;-1.00;-1.00;105762;1253;1004218;-73
2023/05/26 01:14:01;;;;;;;48.60;41.10;;;;;;;-128.00;-1.00;-1.00;105263;1258;1059557;-71
2023/05/26 01:16:33;;;;;;;51.30;43.50;;;;;;;-128.00;-1.00;-1.00;105205;1259;1046865;-72
2023/05/26 01:19:37;;;;;;;50.50;43.10;;;;;;;-128.00;-1.00;-1.00;105257;1258;1047592;-72
2023/05/26 01:22:23;;;;;;;54.10;43.10;;;;;;;-128.00;-1.00;-1.00;105279;1258;1062649;-72
2023/05/26 01:25:12;;;;;;;54.60;43.30;;;;;;;-128.00;-1.00;-1.00;105235;1258;1056601;-71
2023/05/26 01:27:58;;;;;;;50.10;42.80;;;;;;;-128.00;-1.00;-1.00;105222;1259;1059227;-72
2023/05/26 01:30:25;;;;;;;49.40;43.10;;;;;;;-128.00;-1.00;-1.00;105245;1258;1047074;-72
2023/05/26 01:32:52;;;;;;;49.70;42.10;;;;;;;-128.00;-1.00;-1.00;105242;1258;1003927;-72
2023/05/26 01:35:18;;;;;;;52.30;43.20;;;;;;;-128.00;-1.00;-1.00;105242;1258;1003810;-72
2023/05/26 01:37:46;;;;;;;51.40;42.40;;;;;;;-128.00;-1.00;-1.00;105149;1259;1006118;-73
2023/05/26 01:40:13;;;;;;;53.80;43.50;;;;;;;-128.00;-1.00;-1.00;105246;1259;1005887;-73
2023/05/26 01:42:55;;;;;;;53.20;44.80;;;;;;;-128.00;-1.00;-1.00;105158;1258;1003806;-72
2023/05/26 01:45:25;;;;;;;52.20;44.10;;;;;;;-128.00;-1.00;-1.00;105196;1259;1047387;-72
2023/05/26 01:47:56;;;;;;;54.40;43.70;;;;;;;-128.00;-1.00;-1.00;105252;1259;1062449;-72
2023/05/26 01:50:28;;;;;;;50.40;43.10;;;;;;;-128.00;-1.00;-1.00;105405;1251;1055884;-73
2023/05/26 01:52:57;;;;;;;51.80;42.70;;;;;;;-128.00;-1.00;-1.00;105530;1251;1060226;-73
2023/05/26 01:55:26;;;;;;;54.00;44.90;;;;;;;-128.00;-1.00;-1.00;105766;1251;1046194;-72
2023/05/26 01:57:56;;;;;;;52.70;44.00;;;;;;;-128.00;-1.00;-1.00;105808;1251;1046115;-73
2023/05/26 02:00:32;;;;;;;52.80;44.80;;;;;;;-128.00;-1.00;-1.00;105774;1251;1061724;-73
2023/05/26 02:02:58;;;;;;;53.80;44.80;;;;;;;-128.00;-1.00;-1.00;105803;1251;1056081;-71
2023/05/26 02:05:25;;;;;;;57.00;46.00;;;;;;;-128.00;-1.00;-1.00;105757;1251;1004123;-71
2023/05/26 02:07:51;;;;;;;56.60;45.90;;;;;;;-128.00;-1.00;-1.00;105700;1251;1003586;-71
2023/05/26 02:10:18;;;;;;;55.20;46.00;;;;;;;-128.00;-1.00;-1.00;105857;1251;1005244;-72
2023/05/26 02:12:44;;;;;;;54.50;45.60;;;;;;;-128.00;-1.00;-1.00;105748;1251;1004361;-72
2023/05/26 02:15:11;;;;;;;58.00;44.70;;;;;;;-128.00;-1.00;-1.00;105731;1252;1004744;-73
2023/05/26 02:17:40;;;;;;;54.90;44.50;;;;;;;-128.00;-1.00;-1.00;105511;1251;1003904;-73
2023/05/26 02:20:09;;;;;;;56.50;45.00;;;;;;;-128.00;-1.00;-1.00;105749;1251;1047606;-73
2023/05/26 02:22:35;;;;;;;58.40;46.60;;;;;;;-128.00;-1.00;-1.00;105727;1251;1046642;-72
2023/05/26 02:25:02;;;;;;;58.00;46.80;;;;;;;-128.00;-1.00;-1.00;105706;1251;1004488;-73
2023/05/26 02:27:29;;;;;;;59.90;47.10;;;;;;;-128.00;-1.00;-1.00;105781;1251;1004665;-73
2023/05/26 02:29:55;;;;;;;62.90;49.30;;;;;;;-128.00;-1.00;-1.00;105720;1251;1004259;-73
2023/05/26 02:32:22;;;;;;;57.10;44.80;;;;;;;-128.00;-1.00;-1.00;105779;1251;1004336;-73
2023/05/26 02:34:48;;;;;;;61.10;45.50;;;;;;;-128.00;-1.00;-1.00;105737;1255;1005576;-73
2023/05/26 02:37:17;;;;;;;61.30;47.70;;;;;;;-128.00;-1.00;-1.00;105808;1251;1003913;-73
2023/05/26 02:39:44;;;;;;;63.80;48.50;;;;;;;-128.00;-1.00;-1.00;105805;1251;1055154;-73
2023/05/26 02:42:10;;;;;;;61.10;49.70;;;;;;;-128.00;-1.00;-1.00;105772;1251;1004771;-73
2023/05/26 02:44:37;;;;;;;59.00;47.60;;;;;;;-128.00;-1.00;-1.00;105764;1251;1003727;-72
2023/05/26 02:47:03;;;;;;;59.00;47.10;;;;;;;-128.00;-1.00;-1.00;105787;1251;1004830;-72
2023/05/26 02:49:30;;;;;;;60.30;48.40;;;;;;;-128.00;-1.00;-1.00;105746;1251;1004151;-72
2023/05/26 02:51:56;;;;;;;60.80;47.80;;;;;;;-128.00;-1.00;-1.00;105810;1251;1004363;-72
2023/05/26 02:54:23;;;;;;;67.50;51.10;;;;;;;-128.00;-1.00;-1.00;105469;1251;1004618;-72
2023/05/26 02:56:49;;;;;;;73.00;56.00;;;;;;;-128.00;-1.00;-1.00;105708;1251;1003574;-72
2023/05/26 02:59:16;;;;;;;65.70;52.70;;;;;;;-128.00;-1.00;-1.00;105827;1251;1004293;-73
2023/05/26 03:01:42;;;;;;;66.10;51.50;;;;;;;-128.00;-1.00;-1.00;105790;1251;1003925;-72
2023/05/26 03:04:09;;;;;;;69.80;51.60;;;;;;;-128.00;-1.00;-1.00;105722;1251;1004744;-72
2023/05/26 03:06:35;;;;;;;60.20;48.20;;;;;;;-128.00;-1.00;-1.00;105750;1251;1004068;-73
2023/05/26 03:09:02;;;;;;;56.50;45.10;;;;;;;-128.00;-1.00;-1.00;105799;1251;1004460;-72
2023/05/26 03:11:28;;;;;;;58.20;47.00;;;;;;;-128.00;-1.00;-1.00;105733;1251;1005027;-72
2023/05/26 03:13:55;;;;;;;53.00;43.40;;;;;;;-128.00;-1.00;-1.00;105740;1251;1005127;-72
2023/05/26 03:16:23;;;;;;;52.00;42.10;;;;;;;-128.00;-1.00;-1.00;105585;1251;1004414;-72
2023/05/26 03:18:50;;;;;;;55.60;42.70;;;;;;;-128.00;-1.00;-1.00;105789;1251;1004902;-72
2023/05/26 03:21:17;;;;;;;49.90;43.30;;;;;;;-128.00;-1.00;-1.00;105704;1253;1004432;-72
2023/05/26 03:23:43;;;;;;;53.80;45.30;;;;;;;-128.00;-1.00;-1.00;105724;1251;1004291;-71
2023/05/26 03:26:11;;;;;;;59.90;47.80;;;;;;;-128.00;-1.00;-1.00;105750;1253;1004925;-71
2023/05/26 03:28:37;;;;;;;54.60;46.50;;;;;;;-128.00;-1.00;-1.00;105797;1251;1004070;-72
2023/05/26 03:31:04;;;;;;;60.70;47.30;;;;;;;-128.00;-1.00;-1.00;105662;1251;1005120;-72
2023/05/26 03:33:31;;;;;;;63.00;49.60;;;;;;;-128.00;-1.00;-1.00;105715;1251;1003878;-72
2023/05/26 03:36:00;;;;;;;61.40;48.80;;;;;;;-128.00;-1.00;-1.00;105759;1251;1005638;-71
2023/05/26 03:38:27;;;;;;;59.50;47.80;;;;;;;-128.00;-1.00;-1.00;105696;1251;1062449;-71
2023/05/26 03:40:53;;;;;;;51.70;44.80;;;;;;;-128.00;-1.00;-1.00;105780;1251;1003642;-72
2023/05/26 03:43:20;;;;;;;51.10;43.40;;;;;;;-128.00;-1.00;-1.00;105436;1252;1003885;-72
2023/05/26 03:45:46;;;;;;;48.10;42.00;;;;;;;-128.00;-1.00;-1.00;105727;1251;1004589;-72
2023/05/26 03:48:14;;;;;;;51.20;44.00;;;;;;;-128.00;-1.00;-1.00;105782;1251;1004626;-72
2023/05/26 03:50:43;;;;;;;59.60;48.00;;;;;;;-128.00;-1.00;-1.00;105808;1251;1004066;-73
2023/05/26 03:53:10;;;;;;;58.30;48.20;;;;;;;-128.00;-1.00;-1.00;105726;1251;1055453;-73
2023/05/26 03:55:37;;;;;;;63.70;49.20;;;;;;;-128.00;-1.00;-1.00;105754;1251;1004208;-72
2023/05/26 03:58:03;;;;;;;62.70;48.40;;;;;;;-128.00;-1.00;-1.00;105690;1253;1003848;-73
2023/05/26 04:00:32;;;;;;;58.70;47.70;;;;;;;-128.00;-1.00;-1.00;105478;1251;1003928;-72
2023/05/26 04:02:59;;;;;;;58.30;47.70;;;;;;;-128.00;-1.00;-1.00;105752;1253;1004363;-73
2023/05/26 04:05:26;;;;;;;58.40;48.30;;;;;;;-128.00;-1.00;-1.00;105790;1251;1003627;-74
2023/05/26 04:07:53;;;;;;;58.20;47.80;;;;;;;-128.00;-1.00;-1.00;105655;1251;1004450;-71
2023/05/26 04:10:20;;;;;;;61.40;49.30;;;;;;;-128.00;-1.00;-1.00;105743;1251;1004993;-71
2023/05/26 04:12:46;;;;;;;57.70;48.30;;;;;;;-128.00;-1.00;-1.00;105696;1253;1004060;-71
2023/05/26 04:15:13;;;;;;;61.80;49.30;;;;;;;-128.00;-1.00;-1.00;105761;1251;1004583;-72
2023/05/26 04:17:41;;;;;;;60.80;47.40;;;;;;;-128.00;-1.00;-1.00;105743;1251;1003762;-72
2023/05/26 04:20:11;;;;;;;61.90;48.60;;;;;;;-128.00;-1.00;-1.00;105730;1251;1004914;-72
2023/05/26 04:22:38;;;;;;;57.90;46.00;;;;;;;-128.00;-1.00;-1.00;105724;1255;1046732;-72
2023/05/26 04:25:05;;;;;;;59.00;46.00;;;;;;;-128.00;-1.00;-1.00;105746;1251;1003881;-71
2023/05/26 04:27:32;;;;;;;52.50;44.00;;;;;;;-128.00;-1.00;-1.00;105738;1251;1004058;-71
2023/05/26 04:29:58;;;;;;;50.60;42.20;;;;;;;-128.00;-1.00;-1.00;105718;1251;1003914;-71
2023/05/26 04:32:25;;;;;;;50.20;40.90;;;;;;;-128.00;-1.00;-1.00;105743;1251;1004833;-71
2023/05/26 04:34:52;;;;;;;50.00;41.90;;;;;;;-128.00;-1.00;-1.00;105705;1251;1004329;-72
2023/05/26 04:37:18;;;;;;;49.50;40.70;;;;;;;-128.00;-1.00;-1.00;105749;1251;1003907;-71
2023/05/26 04:39:45;;;;;;;47.40;41.50;;;;;;;-128.00;-1.00;-1.00;105758;1251;1004795;-72
2023/05/26 04:42:12;;;;;;;48.20;42.50;;;;;;;-128.00;-1.00;-1.00;105729;1251;1004896;-71
2023/05/26 04:44:40;;;;;;;53.30;42.60;;;;;;;-128.00;-1.00;-1.00;105663;1251;1004457;-71
2023/05/26 04:47:08;;;;;;;50.00;41.20;;;;;;;-128.00;-1.00;-1.00;105736;1251;1003816;-71
2023/05/26 04:49:35;;;;;;;50.40;42.00;;;;;;;-128.00;-1.00;-1.00;105773;1251;1004378;-72
2023/05/26 04:52:02;;;;;;;50.20;42.80;;;;;;;-128.00;-1.00;-1.00;105740;1251;1003972;-72
2023/05/26 04:54:29;;;;;;;47.40;42.40;;;;;;;-128.00;-1.00;-1.00;105524;1251;1004343;-72
2023/05/26 04:56:56;;;;;;;48.50;42.40;;;;;;;-128.00;-1.00;-1.00;105761;1251;1004011;-72
2023/05/26 04:59:23;;;;;;;52.00;43.60;;;;;;;-128.00;-1.00;-1.00;105689;1255;1004411;-73
2023/05/26 05:01:50;;;;;;;47.70;41.30;;;;;;;-128.00;-1.00;-1.00;105767;1253;1004326;-73
2023/05/26 05:04:17;;;;;;;48.40;40.30;;;;;;;-128.00;-1.00;-1.00;105784;1251;1004081;-72
2023/05/26 05:06:44;;;;;;;50.10;41.40;;;;;;;-128.00;-1.00;-1.00;105739;1251;1004171;-71
2023/05/26 05:09:10;;;;;;;48.40;39.20;;;;;;;-128.00;-1.00;-1.00;105689;1251;1004129;-72
2023/05/26 05:11:37;;;;;;;46.40;39.70;;;;;;;-128.00;-1.00;-1.00;105467;1251;1004130;-72
2023/05/26 05:14:03;;;;;;;47.40;39.80;;;;;;;-128.00;-1.00;-1.00;105744;1251;1003266;-73
2023/05/26 05:16:30;;;;;;;45.40;39.80;;;;;;;-128.00;-1.00;-1.00;105573;1254;1004271;-73
2023/05/26 05:18:56;;;;;;;45.10;39.00;;;;;;;-128.00;-1.00;-1.00;105748;1252;1004431;-73
2023/05/26 05:21:23;;;;;;;45.70;40.70;;;;;;;-128.00;-1.00;-1.00;105784;1253;1004778;-73
2023/05/26 05:23:49;;;;;;;43.10;38.40;;;;;;;-128.00;-1.00;-1.00;105711;1255;1004213;-73
2023/05/26 05:26:16;;;;;;;44.20;39.40;;;;;;;-128.00;-1.00;-1.00;105720;1252;1004043;-72
2023/05/26 05:28:42;;;;;;;47.50;39.90;;;;;;;-128.00;-1.00;-1.00;105732;1252;1004364;-72
2023/05/26 05:31:09;;;;;;;41.90;37.40;;;;;;;-128.00;-1.00;-1.00;105713;1254;1003705;-72
2023/05/26 05:33:39;;;;;;;44.80;39.30;;;;;;;-128.00;-1.00;-1.00;105712;1252;1004094;-72
2023/05/26 05:36:05;;;;;;;42.40;37.10;;;;;;;-128.00;-1.00;-1.00;105674;1254;1046230;-72
2023/05/26 05:38:32;;;;;;;40.70;36.30;;;;;;;-128.00;-1.00;-1.00;105713;1254;1003665;-72
2023/05/26 05:40:58;;;;;;;44.70;38.40;;;;;;;-128.00;-1.00;-1.00;105664;1255;1004833;-72
2023/05/26 05:43:26;;;;;;;43.40;36.90;;;;;;;-128.00;-1.00;-1.00;105575;1254;1005953;-72
2023/05/26 05:45:52;;;;;;;40.80;36.00;;;;;;;-128.00;-1.00;-1.00;105736;1256;1004536;-72
2023/05/26 05:48:19;;;;;;;39.70;35.50;;;;;;;-128.00;-1.00;-1.00;105668;1254;1004222;-72
2023/05/26 05:50:46;;;;;;;45.10;36.70;;;;;;;-128.00;-1.00;-1.00;105756;1252;1003914;-72
2023/05/26 05:53:12;;;;;;;42.20;37.40;;;;;;;-128.00;-1.00;-1.00;105751;1254;1004332;-72
2023/05/26 05:55:39;;;;;;;40.90;36.40;;;;;;;-128.00;-1.00;-1.00;105655;1253;1004764;-72
2023/05/26 05:58:05;;;;;;;42.20;36.80;;;;;;;-128.00;-1.00;-1.00;105724;1253;1004061;-73
2023/05/26 06:00:32;;;;;;;39.10;33.90;;;;;;;-128.00;-1.00;-1.00;105754;1252;1004753;-72
2023/05/26 06:02:58;;;;;;;39.20;34.90;;;;;;;-128.00;-1.00;-1.00;105697;1254;1004116;-72
2023/05/26 06:05:25;;;;;;;41.00;36.40;;;;;;;-128.00;-1.00;-1.00;105670;1254;1003876;-72
2023/05/26 06:07:51;;;;;;;42.00;37.50;;;;;;;-128.00;-1.00;-1.00;105712;1255;1004524;-72
2023/05/26 06:10:18;;;;;;;43.20;38.60;;;;;;;-128.00;-1.00;-1.00;105708;1254;1004391;-72
2023/05/26 06:12:44;;;;;;;43.10;38.10;;;;;;;-128.00;-1.00;-1.00;105656;1253;1004385;-72
2023/05/26 06:15:11;;;;;;;43.70;39.00;;;;;;;-128.00;-1.00;-1.00;105782;1251;1004536;-72
2023/05/26 06:17:37;;;;;;;42.70;37.40;;;;;;;-128.00;-1.00;-1.00;105739;1251;1004151;-73
2023/05/26 06:20:04;;;;;;;41.70;37.20;;;;;;;-128.00;-1.00;-1.00;105704;1251;1005774;-72
2023/05/26 06:22:33;;;;;;;42.30;37.80;;;;;;;-128.00;-1.00;-1.00;105689;1251;1004020;-72
2023/05/26 06:25:00;;;;;;;41.10;35.70;;;;;;;-128.00;-1.00;-1.00;105687;1251;1047111;-72
2023/05/26 06:27:26;;;;;;;37.40;33.60;;;;;;;-128.00;-1.00;-1.00;105752;1252;1004451;-72
2023/05/26 06:29:53;;;;;;;41.00;36.60;;;;;;;-128.00;-1.00;-1.00;105736;1251;1004784;-72
2023/05/26 06:32:19;;;;;;;39.70;35.60;;;;;;;-128.00;-1.00;-1.00;105719;1251;1003458;-72
2023/05/26 06:34:47;;;;;;;40.00;35.70;;;;;;;-128.00;-1.00;-1.00;105706;1251;1004312;-72
2023/05/26 06:37:13;;;;;;;40.30;35.90;;;;;;;-128.00;-1.00;-1.00;105669;1251;1004763;-71
2023/05/26 06:39:40;;;;;;;42.20;36.10;;;;;;;-128.00;-1.00;-1.00;105737;1251;1005703;-71
2023/05/26 06:42:06;;;;;;;38.50;34.20;;;;;;;-128.00;-1.00;-1.00;105708;1251;1004585;-71
2023/05/26 06:44:33;;;;;;;37.50;33.60;;;;;;;-128.00;-1.00;-1.00;105731;1251;1004554;-72
2023/05/26 06:47:00;;;;;;;38.60;33.20;;;;;;;-128.00;-1.00;-1.00;105613;1251;1004585;-72
2023/05/26 06:49:27;;;;;;;38.30;34.20;;;;;;;-128.00;-1.00;-1.00;105684;1251;1004389;-72
2023/05/26 06:51:53;;;;;;;38.10;34.10;;;;;;;-128.00;-1.00;-1.00;105728;1251;1003429;-71
2023/05/26 06:54:20;;;;;;;37.00;33.20;;;;;;;-128.00;-1.00;-1.00;105426;1251;1004775;-71
2023/05/26 06:56:46;;;;;;;38.10;33.50;;;;;;;-128.00;-1.00;-1.00;105688;1255;1003939;-71
2023/05/26 06:59:13;;;;;;;35.50;31.60;;;;;;;-128.00;-1.00;-1.00;105713;1251;1004536;-71
2023/05/26 07:01:39;;;;;;;37.90;34.00;;;;;;;-128.00;-1.00;-1.00;105725;1251;1004036;-71
2023/05/26 07:04:06;;;;;;;35.80;32.00;;;;;;;-128.00;-1.00;-1.00;105704;1251;1004428;-71
2023/05/26 07:06:32;;;;;;;38.10;32.20;;;;;;;-128.00;-1.00;-1.00;105718;1251;1004555;-71
2023/05/26 07:08:59;;;;;;;35.60;31.90;;;;;;;-128.00;-1.00;-1.00;105745;1251;1003484;-72
2023/05/26 07:11:26;;;;;;;34.80;30.90;;;;;;;-128.00;-1.00;-1.00;105730;1251;1004837;-72
2023/05/26 07:13:52;;;;;;;34.50;30.90;;;;;;;-128.00;-1.00;-1.00;105697;1251;1004325;-76
2023/05/26 07:16:21;;;;;;;34.70;31.00;;;;;;;-128.00;-1.00;-1.00;105727;1251;1004432;-73
2023/05/26 07:18:48;;;;;;;34.70;29.80;;;;;;;-128.00;-1.00;-1.00;105739;1251;1061818;-72
2023/05/26 07:21:15;;;;;;;34.00;30.30;;;;;;;-128.00;-1.00;-1.00;105746;1251;1004382;-72
2023/05/26 07:23:41;;;;;;;33.10;29.60;;;;;;;-128.00;-1.00;-1.00;105688;1251;1005035;-72
2023/05/26 07:26:08;;;;;;;33.00;29.60;;;;;;;-128.00;-1.00;-1.00;105681;1251;1003779;-72
2023/05/26 07:28:34;;;;;;;32.00;28.70;;;;;;;-128.00;-1.00;-1.00;105742;1251;1003403;-72
2023/05/26 07:31:01;;;;;;;31.30;28.00;;;;;;;-128.00;-1.00;-1.00;105719;1251;1004936;-71
2023/05/26 07:33:27;;;;;;;36.30;31.50;;;;;;;-128.00;-1.00;-1.00;105725;1251;1003941;-72
2023/05/26 07:35:54;;;;;;;31.40;28.30;;;;;;;-128.00;-1.00;-1.00;105712;1251;1003741;-72
2023/05/26 07:38:21;;;;;;;30.10;27.00;;;;;;;-128.00;-1.00;-1.00;105698;1251;1003803;-72
2023/05/26 07:40:47;;;;;;;33.40;28.10;;;;;;;-128.00;-1.00;-1.00;105768;1251;1004248;-73
2023/05/26 07:43:14;;;;;;;29.90;26.80;;;;;;;-128.00;-1.00;-1.00;105553;1251;1004429;-73
2023/05/26 07:45:40;;;;;;;29.20;26.00;;;;;;;-128.00;-1.00;-1.00;105705;1251;1005004;-73
2023/05/26 07:48:07;;;;;;;29.30;26.20;;;;;;;-128.00;-1.00;-1.00;105679;1251;1004386;-71
2023/05/26 07:50:33;;;;;;;26.20;23.30;;;;;;;-128.00;-1.00;-1.00;105674;1251;1004657;-72
2023/05/26 07:53:00;;;;;;;28.90;25.00;;;;;;;-128.00;-1.00;-1.00;105739;1251;1005562;-73
2023/05/26 07:55:26;;;;;;;27.30;24.60;;;;;;;-128.00;-1.00;-1.00;105728;1256;1004196;-72
2023/05/26 07:57:53;;;;;;;27.40;24.70;;;;;;;-128.00;-1.00;-1.00;105717;1251;1004374;-73
2023/05/26 08:00:20;;;;;;;26.30;23.50;;;;;;;-128.00;-1.00;-1.00;105689;1251;1004257;-73
2023/05/26 08:02:46;;;;;;;24.50;22.00;;;;;;;-128.00;-1.00;-1.00;105734;1251;1005131;-72
2023/05/26 08:05:13;;;;;;;26.00;22.60;;;;;;;-128.00;-1.00;-1.00;105749;1251;1003886;-73
2023/05/26 08:07:39;;;;;;;23.70;21.20;;;;;;;-128.00;-1.00;-1.00;105705;1251;1004339;-72
2023/05/26 08:10:06;;;;;;;27.00;24.10;;;;;;;-128.00;-1.00;-1.00;105740;1251;1004187;-72
2023/05/26 08:12:33;;;;;;;25.80;22.80;;;;;;;-128.00;-1.00;-1.00;105561;1251;1004221;-72
2023/05/26 08:15:04;;;;;;;27.40;24.30;;;;;;;-128.00;-1.00;-1.00;105735;1251;1004115;-72
2023/05/26 08:17:30;;;;;;;29.30;25.60;;;;;;;-128.00;-1.00;-1.00;105668;1251;1046200;-72
2023/05/26 08:19:57;;;;;;;27.40;24.90;;;;;;;-128.00;-1.00;-1.00;105558;1251;1004975;-72
2023/05/26 08:22:23;;;;;;;30.50;27.30;;;;;;;-128.00;-1.00;-1.00;105724;1251;1003813;-72
2023/05/26 08:24:50;;;;;;;29.90;26.50;;;;;;;-128.00;-1.00;-1.00;105530;1251;1004282;-72
2023/05/26 08:27:16;;;;;;;28.90;26.10;;;;;;;-128.00;-1.00;-1.00;105646;1251;1004267;-72
2023/05/26 08:29:43;;;;;;;30.10;25.50;;;;;;;-128.00;-1.00;-1.00;105553;1251;1004889;-72
2023/05/26 08:32:09;;;;;;;28.80;25.80;;;;;;;-128.00;-1.00;-1.00;105763;1251;1004115;-72
2023/05/26 08:34:36;;;;;;;28.90;26.00;;;;;;;-128.00;-1.00;-1.00;105692;1251;1004225;-72
2023/05/26 08:37:02;;;;;;;30.00;27.20;;;;;;;-128.00;-1.00;-1.00;105767;1251;1003547;-72
2023/05/26 08:39:29;;;;;;;27.50;24.60;;;;;;;-128.00;-1.00;-1.00;105598;1251;1003201;-72
2023/05/26 08:42:02;;;;;;;26.90;24.40;;;;;;;-128.00;-1.00;-1.00;105726;1251;1004092;-72
2023/05/26 08:44:30;;;;;;;27.10;24.40;;;;;;;-128.00;-1.00;-1.00;105578;1251;1062102;-73
2023/05/26 08:46:58;;;;;;;26.10;23.60;;;;;;;-128.00;-1.00;-1.00;105724;1251;1004933;-72
2023/05/26 08:49:24;;;;;;;26.50;22.70;;;;;;;-128.00;-1.00;-1.00;105718;1251;1004040;-76
2023/05/26 08:52:00;;;;;;;26.90;24.10;;;;;;;-128.00;-1.00;-1.00;105726;1251;1004147;-76
2023/05/26 08:54:27;;;;;;;27.10;24.40;;;;;;;-128.00;-1.00;-1.00;105790;1251;1047027;-78
2023/05/26 08:56:57;;;;;;;29.30;25.80;;;;;;;-128.00;-1.00;-1.00;105368;1251;1003985;-77
2023/05/26 08:59:23;;;;;;;;;;;;;;;-128.00;-1.00;-1.00;105775;1251;1055852;-75
2023/05/26 09:01:50;;;;;;;25.80;23.10;;;;;;;-128.00;-1.00;-1.00;105710;1251;1004474;-76
2023/05/26 09:04:16;;;;;;;28.40;25.40;;;;;;;-128.00;-1.00;-1.00;105708;1251;1003699;-75
2023/05/26 09:06:45;;;;;;;25.90;23.20;;;;;;;-128.00;-1.00;-1.00;105720;1251;1003758;-76
2023/05/26 09:09:13;;;;;;;24.50;21.90;;;;;;;-128.00;-1.00;-1.00;105714;1251;1061403;-76
2023/05/26 09:11:42;;;;;;;27.00;23.50;;;;;;;-128.00;-1.00;-1.00;105716;1251;1055226;-76
2023/05/26 09:14:13;;;;;;;26.00;23.40;;;;;;;-128.00;-1.00;-1.00;105629;1251;1004586;-76
2023/05/26 09:16:40;;;;;;;26.40;23.60;;;;;;;-128.00;-1.00;-1.00;105648;1251;1045154;-76
2023/05/26 09:19:11;;;;;;;24.30;21.80;;;;;;;-128.00;-1.00;-1.00;105762;1251;1005704;-77
2023/05/26 09:21:38;;;;;;;27.10;23.40;;;;;;;-128.00;-1.00;-1.00;105737;1251;1063260;-76
2023/05/26 09:24:05;;;;;;;24.10;21.40;;;;;;;-128.00;-1.00;-1.00;105707;1251;1003958;-76
2023/05/26 09:26:33;;;;;;;27.20;23.00;;;;;;;-128.00;-1.00;-1.00;105677;1251;1004283;-76
2023/05/26 09:29:01;;;;;;;26.70;24.10;;;;;;;-128.00;-1.00;-1.00;105715;1251;1043970;-76
2023/05/26 09:31:45;;;;;;;25.80;23.10;;;;;;;-128.00;-1.00;-1.00;105789;1251;1047674;-76
2023/05/26 09:34:13;;;;;;;24.70;22.20;;;;;;;-128.00;-1.00;-1.00;105727;1251;1062384;-76
2023/05/26 09:36:40;;;;;;;24.60;21.90;;;;;;;-128.00;-1.00;-1.00;105695;1251;1003505;-76
2023/05/26 09:39:10;;;;;;;25.20;22.50;;;;;;;-128.00;-1.00;-1.00;105773;1251;1004266;-77
2023/05/26 09:41:41;;;;;;;28.10;22.70;;;;;;;-128.00;-1.00;-1.00;105712;1251;1045290;-77
2023/05/26 09:44:12;;;;;;;25.30;22.60;;;;;;;-128.00;-1.00;-1.00;105601;1251;1046296;-77
2023/05/26 09:46:40;;;;;;;23.80;21.40;;;;;;;-128.00;-1.00;-1.00;105772;1251;1061800;-76
2023/05/26 09:49:12;;;;;;;22.90;20.70;;;;;;;-128.00;-1.00;-1.00;105603;1256;1003705;-76
2023/05/26 09:51:40;;;;;;;23.70;21.20;;;;;;;-128.00;-1.00;-1.00;105832;1251;1058493;-76
2023/05/26 09:54:11;;;;;;;23.80;20.00;;;;;;;-128.00;-1.00;-1.00;105746;1251;1004625;-77
2023/05/26 09:56:51;;;;;;;22.00;19.90;;;;;;;-128.00;-1.00;-1.00;105793;1251;1047132;-77
2023/05/26 09:59:19;;;;;;;22.90;20.20;;;;;;;-128.00;-1.00;-1.00;105767;1251;1062201;-77
2023/05/26 10:01:46;;;;;;;22.70;20.30;;;;;;;-128.00;-1.00;-1.00;105762;1251;1003955;-76
2023/05/26 10:04:15;;;;;;;24.00;21.60;;;;;;;-128.00;-1.00;-1.00;105736;1251;1004969;-76
2023/05/26 10:06:43;;;;;;;23.80;21.20;;;;;;;-128.00;-1.00;-1.00;106012;1251;1044633;-76
2023/05/26 10:09:11;;;;;;;22.90;20.60;;;;;;;-128.00;-1.00;-1.00;105930;1251;1004343;-76
2023/05/26 10:11:42;;;;;;;22.60;20.50;;;;;;;-128.00;-1.00;-1.00;106042;1251;1004527;-76
2023/05/26 10:14:10;;;;;;;22.30;20.00;;;;;;;-128.00;-1.00;-1.00;105933;1251;1055520;-77
2023/05/26 10:16:37;;;;;;;23.80;20.10;;;;;;;-128.00;-1.00;-1.00;105988;1251;1004886;-77
2023/05/26 10:19:05;;;;;;;23.00;20.60;;;;;;;-128.00;-1.00;-1.00;105953;1251;1004155;-77
2023/05/26 10:21:37;;;;;;;22.20;20.00;;;;;;;-128.00;-1.00;-1.00;105765;1251;1004524;-77
2023/05/26 10:24:13;;;;;;;20.30;18.20;;;;;;;-128.00;-1.00;-1.00;105721;1251;1061885;-76
2023/05/26 10:27:07;;;;;;;19.90;17.90;;;;;;;-128.00;-1.00;-1.00;105749;1251;1056769;-76
2023/05/26 10:29:46;;;;;;;20.20;18.10;;;;;;;-128.00;-1.00;-1.00;105705;1251;1059688;-76
2023/05/26 10:32:45;;;;;;;22.20;19.70;;;;;;;-128.00;-1.00;-1.00;105540;1251;1044769;-76
2023/05/26 10:35:31;;;;;;;21.90;19.80;;;;;;;-128.00;-1.00;-1.00;105695;1251;1047048;-74
2023/05/26 10:38:01;;;;;;;21.90;19.60;;;;;;;-128.00;-1.00;-1.00;105704;1251;1061264;-74
2023/05/26 10:40:28;;;;;;;21.00;18.10;;;;;;;-128.00;-1.00;-1.00;105710;1251;1055325;-73
2023/05/26 10:43:00;;;;;;;21.30;19.00;;;;;;;-128.00;-1.00;-1.00;105699;1251;1003744;-74
2023/05/26 10:45:33;;;;;;;20.30;18.40;;;;;;;-128.00;-1.00;-1.00;105723;1251;1044961;-73
2023/05/26 10:48:10;;;;;;;19.30;17.30;;;;;;;-128.00;-1.00;-1.00;105576;1251;1047633;-74
2023/05/26 10:50:54;;;;;;;22.00;18.10;;;;;;;-128.00;-1.00;-1.00;105742;1251;1061006;-73
2023/05/26 10:53:22;;;;;;;18.50;16.70;;;;;;;-128.00;-1.00;-1.00;105682;1251;1056294;-73
2023/05/26 10:55:56;;;;;;;20.70;18.80;;;;;;;-128.00;-1.00;-1.00;105711;1251;1004047;-74
2023/05/26 10:58:29;;;;;;;20.80;18.70;;;;;;;-128.00;-1.00;-1.00;105693;1251;1043755;-74
2023/05/26 11:01:00;;;;;;;20.30;18.30;;;;;;;-128.00;-1.00;-1.00;105682;1251;1047951;-74
2023/05/26 11:03:56;;;;;;;19.20;17.20;;;;;;;-128.00;-1.00;-1.00;105542;1251;1062119;-74
2023/05/26 11:06:59;;;;;;;17.20;15.60;;;;;;;-128.00;-1.00;-1.00;105218;1259;1055960;-74
2023/05/26 11:09:27;;;;;;;18.10;15.90;;;;;;;-128.00;-1.00;-1.00;105227;1259;1059643;-74